Time,TemperatureF,DewpointF,PressureIn,WindDirection,WindDirectionDegrees,WindSpeedMPH,WindSpeedGustMPH,Humidity,HourlyPrecipIn,Conditions,Clouds,dailyrainin,SolarRadiationWatts/m^2,SoftwareType,DateUTC
2013-09-13 00:04:00,68.0,57.0,29.96,WNW,297,3.0,14.0,69,0.00,,,0.02,0.000000,,2013-09-13 04:04:00,
2013-09-13 00:10:00,68.0,60.0,29.97,NNW,332,5.0,12.0,76,0.00,,,0.02,0.000000,,2013-09-13 04:10:00,
2013-09-13 00:44:00,68.0,60.0,29.97,NNW,332,5.0,12.0,76,0.00,,,0.02,0.000000,,2013-09-13 04:44:00,
2013-09-13 00:54:00,68.0,60.0,29.97,NNW,332,5.0,12.0,76,0.00,,,0.02,0.000000,,2013-09-13 04:54:00,
2013-09-13 01:03:00,68.0,60.0,29.97,NNW,332,5.0,12.0,76,0.00,,,0.02,0.000000,,2013-09-13 05:03:00,
2013-09-13 01:10:00,64.0,62.0,29.94,NW,318,3.0,14.0,94,0.00,,,0.02,0.000000,,2013-09-13 05:10:00,
2013-09-13 01:43:00,64.0,62.0,29.94,NW,318,3.0,14.0,94,0.00,,,0.02,0.000000,,2013-09-13 05:43:00,
2013-09-13 01:53:00,64.0,62.0,29.94,NW,318,3.0,14.0,94,0.00,,,0.02,0.000000,,2013-09-13 05:53:00,
2013-09-13 02:02:00,64.0,62.0,29.94,NW,318,3.0,14.0,94,0.00,,,0.02,0.000000,,2013-09-13 06:02:00,
2013-09-13 02:10:00,65.0,60.0,29.93,SW,230,1.0,21.0,85,0.00,,,-99.99,0.000000,,2013-09-13 06:10:00,
2013-09-13 02:42:00,65.0,60.0,29.93,SW,230,1.0,21.0,85,0.00,,,-99.99,0.000000,,2013-09-13 06:42:00,
2013-09-13 02:52:00,65.0,60.0,29.93,SW,230,1.0,21.0,85,0.00,,,-99.99,0.000000,,2013-09-13 06:52:00,
2013-09-13 03:02:00,65.0,60.0,29.93,SW,230,1.0,21.0,85,0.00,,,-99.99,0.000000,,2013-09-13 07:02:00,
2013-09-13 03:10:00,66.0,60.0,29.92,NW,320,4.0,15.0,82,0.00,,,0.02,0.000000,,2013-09-13 07:10:00,
2013-09-13 03:43:00,66.0,60.0,29.92,NW,320,4.0,15.0,82,0.00,,,0.02,0.000000,,2013-09-13 07:43:00,
2013-09-13 03:53:00,66.0,60.0,29.92,NW,320,4.0,15.0,82,0.00,,,0.02,0.000000,,2013-09-13 07:53:00,
2013-09-13 04:02:00,66.0,60.0,29.92,NW,320,4.0,15.0,82,0.00,,,0.02,0.000000,,2013-09-13 08:02:00,
2013-09-13 04:10:00,63.0,57.0,29.92,North,353,7.0,11.0,82,0.00,,,0.02,0.000000,,2013-09-13 08:10:00,
2013-09-13 04:42:00,63.0,57.0,29.92,North,353,7.0,11.0,82,0.00,,,0.02,0.000000,,2013-09-13 08:42:00,
2013-09-13 04:52:00,63.0,57.0,29.92,North,353,7.0,11.0,82,0.00,,,0.02,0.000000,,2013-09-13 08:52:00,
2013-09-13 05:02:00,63.0,57.0,29.92,North,353,7.0,11.0,82,0.00,,,0.02,0.000000,,2013-09-13 09:02:00,
2013-09-13 05:10:00,62.0,57.0,29.92,North,6,9.0,16.0,85,0.00,,,0.02,0.000000,,2013-09-13 09:10:00,
2013-09-13 05:43:00,62.0,57.0,29.92,North,6,9.0,16.0,85,0.00,,,0.02,0.000000,,2013-09-13 09:43:00,
2013-09-13 05:54:00,62.0,57.0,29.92,North,6,9.0,16.0,85,0.00,,,0.02,0.000000,,2013-09-13 09:54:00,
2013-09-13 06:03:00,62.0,57.0,29.92,North,6,9.0,16.0,85,0.00,,,0.02,0.000000,,2013-09-13 10:03:00,
2013-09-13 06:10:00,62.0,55.0,29.92,North,349,7.0,20.0,77,0.00,,,0.02,0.000000,,2013-09-13 10:10:00,
2013-09-13 06:42:00,62.0,55.0,29.92,North,349,7.0,20.0,77,0.00,,,0.02,0.000000,,2013-09-13 10:42:00,
2013-09-13 06:53:00,62.0,55.0,29.92,North,349,7.0,20.0,77,0.00,,,0.02,0.000000,,2013-09-13 10:53:00,
2013-09-13 07:03:00,62.0,55.0,29.92,North,349,7.0,20.0,77,0.00,,,0.02,0.000000,,2013-09-13 11:03:00,
2013-09-13 07:10:00,62.0,55.0,29.94,North,358,5.0,21.0,77,0.00,,,0.02,0.000000,,2013-09-13 11:10:00,
2013-09-13 07:43:00,62.0,55.0,29.94,North,358,5.0,21.0,77,0.00,,,0.02,0.000000,,2013-09-13 11:43:00,
2013-09-13 07:52:00,62.0,55.0,29.94,North,358,5.0,21.0,77,0.00,,,0.02,0.000000,,2013-09-13 11:52:00,
2013-09-13 08:02:00,62.0,55.0,29.94,North,358,5.0,21.0,77,0.00,,,0.02,0.000000,,2013-09-13 12:02:00,
2013-09-13 08:10:00,65.0,57.0,29.94,NW,318,5.0,15.0,76,0.00,,,0.02,0.000000,,2013-09-13 12:10:00,
2013-09-13 08:42:00,65.0,57.0,29.94,NW,318,5.0,15.0,76,0.00,,,0.02,0.000000,,2013-09-13 12:42:00,
2013-09-13 08:52:00,65.0,57.0,29.94,NW,318,5.0,15.0,76,0.00,,,0.02,0.000000,,2013-09-13 12:52:00,
2013-09-13 09:02:00,65.0,57.0,29.94,NW,318,5.0,15.0,76,0.00,,,0.02,0.000000,,2013-09-13 13:02:00,
2013-09-13 09:10:00,68.0,60.0,29.94,WNW,302,3.0,12.0,76,0.00,,,0.02,35.000000,,2013-09-13 13:10:00,
2013-09-13 09:42:00,68.0,60.0,29.94,WNW,302,3.0,12.0,76,0.00,,,0.02,35.000000,,2013-09-13 13:42:00,
2013-09-13 09:52:00,68.0,60.0,29.94,WNW,302,3.0,12.0,76,0.00,,,0.02,35.000000,,2013-09-13 13:52:00,
2013-09-13 10:02:00,68.0,60.0,29.94,WNW,302,3.0,12.0,76,0.00,,,0.02,35.000000,,2013-09-13 14:02:00,
2013-09-13 10:10:00,69.0,59.0,29.95,NNW,344,6.0,15.0,70,0.00,,,0.02,106.000000,,2013-09-13 14:10:00,
2013-09-13 10:42:00,69.0,59.0,29.95,NNW,344,6.0,15.0,70,0.00,,,0.02,106.000000,,2013-09-13 14:42:00,
2013-09-13 10:52:00,69.0,59.0,29.95,NNW,344,6.0,15.0,70,0.00,,,0.02,106.000000,,2013-09-13 14:52:00,
2013-09-13 11:02:00,69.0,59.0,29.95,NNW,344,6.0,15.0,70,0.00,,,0.02,106.000000,,2013-09-13 15:02:00,
2013-09-13 11:10:00,73.0,56.0,29.94,North,7,9.0,16.0,55,0.00,,,0.02,280.000000,,2013-09-13 15:10:00,
2013-09-13 11:44:00,73.0,56.0,29.94,North,7,9.0,16.0,55,0.00,,,0.02,280.000000,,2013-09-13 15:44:00,
2013-09-13 11:54:00,73.0,56.0,29.94,North,7,9.0,16.0,55,0.00,,,0.02,280.000000,,2013-09-13 15:54:00,
2013-09-13 12:04:00,73.0,56.0,29.94,North,7,9.0,16.0,55,0.00,,,0.02,280.000000,,2013-09-13 16:04:00,
2013-09-13 12:10:00,75.0,56.0,29.95,North,353,8.0,21.0,52,0.00,,,0.02,619.000000,,2013-09-13 16:10:00,
2013-09-13 12:43:00,75.0,56.0,29.95,North,353,8.0,21.0,52,0.00,,,0.02,619.000000,,2013-09-13 16:43:00,
2013-09-13 12:54:00,75.0,56.0,29.95,North,353,8.0,21.0,52,0.00,,,0.02,619.000000,,2013-09-13 16:54:00,
2013-09-13 13:04:00,75.0,56.0,29.95,North,353,8.0,21.0,52,0.00,,,0.02,619.000000,,2013-09-13 17:04:00,
2013-09-13 13:10:00,75.0,55.0,29.95,North,1,9.0,22.0,50,0.00,,,0.02,873.000000,,2013-09-13 17:10:00,
2013-09-13 13:44:00,75.0,55.0,29.95,North,1,9.0,22.0,50,0.00,,,0.02,873.000000,,2013-09-13 17:44:00,
2013-09-13 13:53:00,75.0,55.0,29.95,North,1,9.0,22.0,50,0.00,,,0.02,873.000000,,2013-09-13 17:53:00,
2013-09-13 14:02:00,75.0,55.0,29.95,North,1,9.0,22.0,50,0.00,,,0.02,873.000000,,2013-09-13 18:02:00,
2013-09-13 14:10:00,77.0,51.0,29.94,North,355,9.0,24.0,41,0.00,,,0.02,949.000000,,2013-09-13 18:10:00,
2013-09-13 14:42:00,77.0,51.0,29.94,North,355,9.0,24.0,41,0.00,,,0.02,949.000000,,2013-09-13 18:42:00,
2013-09-13 14:52:00,77.0,51.0,29.94,North,355,9.0,24.0,41,0.00,,,0.02,949.000000,,2013-09-13 18:52:00,
2013-09-13 15:02:00,77.0,51.0,29.94,North,355,9.0,24.0,41,0.00,,,0.02,949.000000,,2013-09-13 19:02:00,
2013-09-13 15:10:00,77.0,51.0,29.94,North,349,7.0,20.0,40,0.00,,,0.01,1125.000000,,2013-09-13 19:10:00,
2013-09-13 15:43:00,77.0,51.0,29.94,North,349,7.0,20.0,40,0.00,,,0.01,1125.000000,,2013-09-13 19:43:00,
2013-09-13 15:52:00,77.0,51.0,29.94,North,349,7.0,20.0,40,0.00,,,0.01,1125.000000,,2013-09-13 19:52:00,
2013-09-13 16:02:00,77.0,51.0,29.94,North,349,7.0,20.0,40,0.00,,,0.01,1125.000000,,2013-09-13 20:02:00,
2013-09-13 16:10:00,76.0,49.0,29.93,North,357,10.0,22.0,38,0.00,,,0.01,1023.000000,,2013-09-13 20:10:00,
2013-09-13 16:43:00,76.0,49.0,29.93,North,357,10.0,22.0,38,0.00,,,0.01,1023.000000,,2013-09-13 20:43:00,
2013-09-13 16:52:00,76.0,49.0,29.93,North,357,10.0,22.0,38,0.00,,,0.01,1023.000000,,2013-09-13 20:52:00,
2013-09-13 17:02:00,76.0,49.0,29.93,North,357,10.0,22.0,38,0.00,,,0.01,1023.000000,,2013-09-13 21:02:00,
2013-09-13 17:10:00,73.0,48.0,29.94,North,0,9.0,18.0,41,0.00,,,0.01,862.000000,,2013-09-13 21:10:00,
2013-09-13 17:44:00,73.0,48.0,29.94,North,0,9.0,18.0,41,0.00,,,0.01,862.000000,,2013-09-13 21:44:00,
2013-09-13 17:54:00,73.0,48.0,29.94,North,0,9.0,18.0,41,0.00,,,0.01,862.000000,,2013-09-13 21:54:00,
2013-09-13 18:04:00,73.0,48.0,29.94,North,0,9.0,18.0,41,0.00,,,0.01,862.000000,,2013-09-13 22:04:00,
2013-09-13 18:10:00,69.0,46.0,29.95,North,354,8.0,18.0,43,0.00,,,0.01,720.000000,,2013-09-13 22:10:00,
2013-09-13 18:43:00,69.0,46.0,29.95,North,354,8.0,18.0,43,0.00,,,0.01,720.000000,,2013-09-13 22:43:00,
2013-09-13 18:54:00,69.0,46.0,29.95,North,354,8.0,18.0,43,0.00,,,0.01,720.000000,,2013-09-13 22:54:00,
2013-09-13 19:03:00,69.0,46.0,29.95,North,354,8.0,18.0,43,0.00,,,0.01,720.000000,,2013-09-13 23:03:00,
2013-09-13 19:10:00,63.0,48.0,29.96,North,1,8.0,17.0,59,0.00,,,0.00,443.000000,,2013-09-13 23:10:00,
2013-09-13 19:43:00,63.0,48.0,29.96,North,1,8.0,17.0,59,0.00,,,0.00,443.000000,,2013-09-13 23:43:00,
2013-09-13 19:53:00,63.0,48.0,29.96,North,1,8.0,17.0,59,0.00,,,0.00,443.000000,,2013-09-13 23:53:00,
2013-09-13 20:01:00,63.0,48.0,29.96,North,1,8.0,17.0,59,0.00,,,0.00,443.000000,,2013-09-14 00:01:00,
2013-09-13 20:10:00,59.0,48.0,29.98,North,1,9.0,18.0,67,0.00,,,0.00,108.000000,,2013-09-14 00:10:00,
2013-09-13 20:42:00,59.0,48.0,29.98,North,1,9.0,18.0,67,0.00,,,0.00,108.000000,,2013-09-14 00:42:00,
2013-09-13 20:53:00,59.0,48.0,29.98,North,1,9.0,18.0,67,0.00,,,0.00,108.000000,,2013-09-14 00:53:00,
2013-09-13 21:02:00,59.0,48.0,29.98,North,1,9.0,18.0,67,0.00,,,0.00,108.000000,,2013-09-14 01:02:00,
2013-09-13 21:10:00,58.0,47.0,29.99,North,6,10.0,21.0,67,0.00,,,0.00,5.000000,,2013-09-14 01:10:00,
2013-09-13 21:42:00,58.0,47.0,29.99,North,6,10.0,21.0,67,0.00,,,0.00,5.000000,,2013-09-14 01:42:00,
2013-09-13 21:52:00,58.0,47.0,29.99,North,6,10.0,21.0,67,0.00,,,0.00,5.000000,,2013-09-14 01:52:00,
2013-09-13 22:02:00,58.0,47.0,29.99,North,6,10.0,21.0,67,0.00,,,0.00,5.000000,,2013-09-14 02:02:00,
2013-09-13 22:10:00,58.0,49.0,30.00,North,11,11.0,25.0,72,0.00,,,0.00,0.000000,,2013-09-14 02:10:00,
2013-09-13 22:42:00,58.0,49.0,30.00,North,11,11.0,25.0,72,0.00,,,0.00,0.000000,,2013-09-14 02:42:00,
2013-09-13 22:52:00,58.0,49.0,30.00,North,11,11.0,25.0,72,0.00,,,0.00,0.000000,,2013-09-14 02:52:00,
2013-09-13 23:02:00,58.0,49.0,30.00,North,11,11.0,25.0,72,0.00,,,0.00,0.000000,,2013-09-14 03:02:00,
2013-09-13 23:10:00,55.0,47.0,30.01,NNE,13,13.0,25.0,74,0.00,,,0.00,0.000000,,2013-09-14 03:10:00,
2013-09-13 23:45:00,55.0,47.0,30.01,NNE,13,13.0,25.0,74,0.00,,,0.00,0.000000,,2013-09-14 03:45:00,
2013-09-13 23:55:00,55.0,47.0,30.01,NNE,13,13.0,25.0,74,0.00,,,0.00,0.000000,,2013-09-14 03:55:00,